createdAt,value
2018-12-13T00:01:10.265Z,17.00
2018-12-13T00:03:38.502Z,17.63
2018-12-13T00:06:06.606Z,17.47
2018-12-13T00:08:34.831Z,15.10
2018-12-13T00:11:03.061Z,16.90
2018-12-13T00:13:31.220Z,17.10
2018-12-13T00:15:59.381Z,17.90
2018-12-13T00:18:27.574Z,17.10
2018-12-13T00:20:55.682Z,16.37
2018-12-13T00:23:23.914Z,17.07
2018-12-13T00:25:51.999Z,17.33
2018-12-13T00:28:20.181Z,16.53
2018-12-13T00:30:48.273Z,17.70
2018-12-13T00:33:16.444Z,17.90
2018-12-13T00:35:44.672Z,16.73
2018-12-13T00:38:12.776Z,18.43
2018-12-13T00:40:40.969Z,18.17
2018-12-13T00:43:09.075Z,18.00
2018-12-13T00:45:37.179Z,17.83
2018-12-13T00:48:05.370Z,17.60
2018-12-13T00:50:33.725Z,17.23
2018-12-13T00:53:01.971Z,18.93
2018-12-13T00:55:30.116Z,16.93
2018-12-13T00:57:58.318Z,18.03
2018-12-13T01:00:26.513Z,18.00
2018-12-13T01:02:54.761Z,17.80
2018-12-13T01:05:22.924Z,18.57
2018-12-13T01:07:51.225Z,19.37
2018-12-13T01:10:19.308Z,19.37
2018-12-13T01:12:47.460Z,19.00
2018-12-13T01:15:15.544Z,19.10
2018-12-13T01:17:43.684Z,20.73
2018-12-13T01:20:11.893Z,21.00
2018-12-13T01:22:39.982Z,18.07
2018-12-13T01:25:08.278Z,20.17
2018-12-13T01:27:36.423Z,19.30
2018-12-13T01:30:05.069Z,18.77
2018-12-13T01:32:33.209Z,18.03
2018-12-13T01:35:01.443Z,20.03
2018-12-13T01:37:29.606Z,20.90
2018-12-13T01:39:57.768Z,16.90
2018-12-13T01:42:25.996Z,19.73
2018-12-13T01:44:54.153Z,18.80
2018-12-13T01:47:22.237Z,20.47
2018-12-13T01:49:50.392Z,19.87
2018-12-13T01:52:18.538Z,21.80
2018-12-13T01:54:46.700Z,19.93
2018-12-13T01:57:14.838Z,21.80
2018-12-13T01:59:42.924Z,23.53
2018-12-13T02:02:11.140Z,21.20
2018-12-13T02:04:39.301Z,22.50
2018-12-13T02:07:07.439Z,22.00
2018-12-13T02:09:35.584Z,21.97
2018-12-13T02:12:03.740Z,22.97
2018-12-13T02:14:37.913Z,21.50
2018-12-13T02:17:06.000Z,23.03
2018-12-13T02:19:34.152Z,24.53
2018-12-13T02:22:02.301Z,22.00
2018-12-13T02:24:30.454Z,21.40
2018-12-13T02:26:58.550Z,24.10
2018-12-13T02:29:26.638Z,24.47
2018-12-13T02:31:54.712Z,21.63
2018-12-13T02:34:22.865Z,23.30
2018-12-13T02:36:53.534Z,21.07
2018-12-13T02:39:21.674Z,22.47
2018-12-13T02:41:49.819Z,21.30
2018-12-13T02:44:17.919Z,23.47
2018-12-13T02:46:46.105Z,23.17
2018-12-13T02:49:14.200Z,23.00
2018-12-13T02:51:42.322Z,20.90
2018-12-13T02:54:10.430Z,23.10
2018-12-13T02:56:38.624Z,22.50
2018-12-13T02:59:06.754Z,22.63
2018-12-13T03:01:34.957Z,22.83
2018-12-13T03:04:03.218Z,23.93
2018-12-13T03:06:31.339Z,23.97
2018-12-13T03:08:59.513Z,23.93
2018-12-13T03:11:27.700Z,24.23
2018-12-13T03:13:55.818Z,24.50
2018-12-13T03:16:23.933Z,24.43
2018-12-13T03:18:52.057Z,22.57
2018-12-13T03:21:20.238Z,20.73
2018-12-13T03:23:48.540Z,21.57
2018-12-13T03:26:16.770Z,22.00
2018-12-13T03:28:44.953Z,20.77
2018-12-13T03:31:13.149Z,21.27
2018-12-13T03:33:41.258Z,21.63
2018-12-13T03:36:09.374Z,21.63
2018-12-13T03:38:37.512Z,22.17
2018-12-13T03:41:05.824Z,22.10
2018-12-13T03:43:33.991Z,20.37
2018-12-13T03:46:02.079Z,21.07
2018-12-13T03:48:30.229Z,22.97
2018-12-13T03:50:58.393Z,25.03
2018-12-13T03:53:26.817Z,24.00
2018-12-13T03:55:54.967Z,23.00
2018-12-13T03:58:23.072Z,22.63
2018-12-13T04:00:51.305Z,22.77
2018-12-13T04:03:19.460Z,23.90
2018-12-13T04:05:47.549Z,21.67
2018-12-13T04:08:15.709Z,23.90
2018-12-13T04:10:43.858Z,25.50
2018-12-13T04:13:12.064Z,25.77
2018-12-13T04:15:40.255Z,23.77
2018-12-13T04:18:08.396Z,23.43
2018-12-13T04:20:36.468Z,22.17
2018-12-13T04:23:04.625Z,23.97
2018-12-13T04:25:32.769Z,24.10
2018-12-13T04:28:02.182Z,25.87
2018-12-13T04:30:30.334Z,25.10
2018-12-13T04:32:58.481Z,24.60
2018-12-13T04:35:26.632Z,25.80
2018-12-13T04:37:54.831Z,23.40
2018-12-13T04:40:22.959Z,25.07
2018-12-13T04:42:51.063Z,25.53
2018-12-13T04:45:19.249Z,27.40
2018-12-13T04:47:47.460Z,25.33
2018-12-13T04:50:15.647Z,24.50
2018-12-13T04:52:43.764Z,24.60
2018-12-13T04:55:12.012Z,28.00
2018-12-13T04:57:40.139Z,25.40
2018-12-13T05:00:08.624Z,25.47
2018-12-13T05:02:36.865Z,26.53
2018-12-13T05:05:05.633Z,29.07
2018-12-13T05:07:33.754Z,26.07
2018-12-13T05:10:01.932Z,26.13
2018-12-13T05:12:30.085Z,26.63
2018-12-13T05:14:58.190Z,29.50
2018-12-13T05:17:26.315Z,27.47
2018-12-13T05:19:54.421Z,25.20
2018-12-13T05:22:22.689Z,26.73
2018-12-13T05:24:50.804Z,27.10
2018-12-13T05:27:18.933Z,26.87
2018-12-13T05:29:47.041Z,27.00
2018-12-13T05:32:15.147Z,27.13
2018-12-13T05:34:43.265Z,25.77
2018-12-13T05:37:11.397Z,24.43
2018-12-13T05:39:39.496Z,24.53
2018-12-13T05:42:07.701Z,25.70
2018-12-13T05:44:35.803Z,25.63
2018-12-13T05:47:04.004Z,25.80
2018-12-13T05:49:32.160Z,25.90
2018-12-13T05:52:00.255Z,26.17
2018-12-13T05:54:28.517Z,25.23
2018-12-13T05:56:56.704Z,25.10
2018-12-13T05:59:24.916Z,27.50
2018-12-13T06:01:53.129Z,25.63
2018-12-13T06:04:21.221Z,24.53
2018-12-13T06:06:49.384Z,24.37
2018-12-13T06:09:17.557Z,25.30
2018-12-13T06:11:45.649Z,28.93
2018-12-13T06:14:13.737Z,25.43
2018-12-13T06:16:41.971Z,23.93
2018-12-13T06:19:10.092Z,25.70
2018-12-13T06:21:38.297Z,24.50
2018-12-13T06:24:06.445Z,25.33
2018-12-13T06:26:34.984Z,25.87
2018-12-13T06:29:03.196Z,25.63
2018-12-13T06:31:31.386Z,26.20
2018-12-13T06:33:59.583Z,25.43
2018-12-13T06:36:27.675Z,24.63
2018-12-13T06:38:55.777Z,25.97
2018-12-13T06:41:23.905Z,24.90
2018-12-13T06:43:52.417Z,27.20
2018-12-13T06:46:20.677Z,24.67
2018-12-13T06:48:48.860Z,27.27
2018-12-13T06:51:16.991Z,24.97
2018-12-13T06:53:45.110Z,23.93
2018-12-13T06:56:13.323Z,28.10
2018-12-13T06:58:41.449Z,27.20
2018-12-13T07:01:09.573Z,25.40
2018-12-13T07:03:37.680Z,27.90
2018-12-13T07:06:05.825Z,27.17
2018-12-13T07:08:33.938Z,24.37
2018-12-13T07:11:02.103Z,27.03
2018-12-13T07:13:30.208Z,24.13
2018-12-13T07:15:58.405Z,27.23
2018-12-13T07:18:26.579Z,26.20
2018-12-13T07:20:54.701Z,26.00
2018-12-13T07:23:22.825Z,25.33
2018-12-13T07:25:51.031Z,28.17
2018-12-13T07:28:19.134Z,25.63
2018-12-13T07:30:47.299Z,27.63
2018-12-13T07:33:15.425Z,28.23
2018-12-13T07:35:43.624Z,27.00
2018-12-13T07:38:14.439Z,28.27
2018-12-13T07:40:41.949Z,28.00
2018-12-13T07:43:10.069Z,26.70
2018-12-13T07:45:38.339Z,26.57
2018-12-13T07:48:06.530Z,26.77
2018-12-13T07:50:34.641Z,26.00
2018-12-13T07:53:02.775Z,27.00
2018-12-13T07:55:30.930Z,25.13
2018-12-13T07:57:59.038Z,25.03
2018-12-13T08:00:27.165Z,25.40
2018-12-13T08:02:55.277Z,27.80
2018-12-13T08:05:40.218Z,26.77
2018-12-13T08:08:08.321Z,26.00
2018-12-13T08:10:36.523Z,27.17
2018-12-13T08:13:04.750Z,26.43
2018-12-13T08:15:32.872Z,26.67
2018-12-13T08:18:00.965Z,25.77
2018-12-13T08:20:29.187Z,27.27
2018-12-13T08:22:57.305Z,25.20
2018-12-13T08:25:25.416Z,26.40
2018-12-13T08:27:53.540Z,25.90
2018-12-13T08:30:21.757Z,26.73
2018-12-13T08:32:49.866Z,26.60
2018-12-13T08:35:18.072Z,27.10
2018-12-13T08:37:46.261Z,27.03
2018-12-13T08:40:14.462Z,25.70
2018-12-13T08:42:42.593Z,26.00
2018-12-13T08:45:10.717Z,28.40
2018-12-13T08:47:38.919Z,26.33
2018-12-13T08:50:07.187Z,25.80
2018-12-13T08:52:35.472Z,26.73
2018-12-13T08:55:03.767Z,28.10
2018-12-13T08:57:31.903Z,24.43
2018-12-13T09:00:00.009Z,25.40
2018-12-13T09:02:28.121Z,30.33
2018-12-13T09:04:56.259Z,25.50
2018-12-13T09:07:24.393Z,26.60
2018-12-13T09:09:52.491Z,26.70
2018-12-13T09:12:20.604Z,27.77
2018-12-13T09:14:48.818Z,27.60
2018-12-13T09:17:16.932Z,28.40
2018-12-13T09:19:45.064Z,28.07
2018-12-13T09:22:13.176Z,29.60
2018-12-13T09:24:41.294Z,29.87
2018-12-13T09:27:09.415Z,30.27
2018-12-13T09:29:37.510Z,29.87
2018-12-13T09:32:05.730Z,26.77
2018-12-13T09:34:33.850Z,27.67
2018-12-13T09:37:01.968Z,25.30
2018-12-13T09:39:30.078Z,28.50
2018-12-13T09:41:58.237Z,25.20
2018-12-13T09:44:26.377Z,28.23
2018-12-13T09:46:54.529Z,25.80
2018-12-13T09:49:22.772Z,27.97
2018-12-13T09:51:51.084Z,24.43
2018-12-13T09:54:19.189Z,23.90
2018-12-13T09:56:47.355Z,24.93
2018-12-13T09:59:15.468Z,22.80
2018-12-13T10:01:43.584Z,25.10
2018-12-13T10:04:11.769Z,22.10
2018-12-13T10:06:39.930Z,23.80
2018-12-13T10:09:08.201Z,24.47
2018-12-13T10:11:36.744Z,22.27
2018-12-13T10:14:04.989Z,20.93
2018-12-13T10:16:33.100Z,21.67
2018-12-13T10:19:01.216Z,20.43
2018-12-13T10:21:29.337Z,21.77
2018-12-13T10:23:57.464Z,21.97
2018-12-13T10:26:25.686Z,18.73
2018-12-13T10:28:53.933Z,18.07
2018-12-13T10:31:22.134Z,17.80
2018-12-13T10:33:51.334Z,16.47
2018-12-13T10:36:19.440Z,16.97
2018-12-13T10:38:52.951Z,17.10
2018-12-13T10:41:17.807Z,16.17
2018-12-13T10:43:45.944Z,16.17
2018-12-13T10:46:14.121Z,16.97
2018-12-13T10:48:42.212Z,15.77
2018-12-13T10:51:10.353Z,17.30
2018-12-13T10:53:38.554Z,19.90
2018-12-13T10:56:06.785Z,17.80
2018-12-13T10:58:34.877Z,18.20
2018-12-13T11:01:09.429Z,17.10
2018-12-13T11:03:37.536Z,16.37
2018-12-13T11:06:05.717Z,15.30
2018-12-13T11:08:33.836Z,17.00
2018-12-13T11:11:02.142Z,15.83
2018-12-13T11:13:30.352Z,18.50
2018-12-13T11:15:58.564Z,16.63
2018-12-13T11:18:26.775Z,18.00
2018-12-13T11:20:54.993Z,17.43
2018-12-13T11:23:23.136Z,17.27
2018-12-13T11:25:51.351Z,18.37
2018-12-13T11:28:31.141Z,16.83
2018-12-13T11:30:59.385Z,17.43
2018-12-13T11:33:27.530Z,17.00
2018-12-13T11:35:55.733Z,17.40
2018-12-13T11:38:23.936Z,19.00
2018-12-13T11:40:52.062Z,18.57
2018-12-13T11:43:20.160Z,19.40
2018-12-13T11:45:48.502Z,18.90
2018-12-13T11:48:16.698Z,18.80
2018-12-13T11:50:45.030Z,19.10
2018-12-13T11:53:13.208Z,19.20
2018-12-13T11:55:41.476Z,19.13
2018-12-13T11:58:14.438Z,18.40
2018-12-13T12:00:42.682Z,17.80
2018-12-13T12:03:10.812Z,19.00
2018-12-13T12:05:39.067Z,21.57
2018-12-13T12:08:07.160Z,19.23
2018-12-13T12:10:35.432Z,18.13
2018-12-13T12:13:03.605Z,19.73
2018-12-13T12:15:31.781Z,19.83
2018-12-13T12:17:59.989Z,19.50
2018-12-13T12:20:28.113Z,20.20
2018-12-13T12:22:56.331Z,20.77
2018-12-13T12:25:24.521Z,20.07
2018-12-13T12:27:52.628Z,20.93
2018-12-13T12:30:20.803Z,19.90
2018-12-13T12:32:48.933Z,19.03
2018-12-13T12:35:17.042Z,20.80
2018-12-13T12:37:45.136Z,19.50
2018-12-13T12:40:13.275Z,19.67
2018-12-13T12:42:41.432Z,19.63
2018-12-13T12:45:09.691Z,22.93
2018-12-13T12:47:37.874Z,19.73
2018-12-13T12:50:08.045Z,20.07
2018-12-13T12:52:36.177Z,19.57
2018-12-13T12:55:04.496Z,19.43
2018-12-13T12:57:32.686Z,19.20
2018-12-13T13:00:00.946Z,21.83
2018-12-13T13:02:30.429Z,19.90
2018-12-13T13:04:59.190Z,20.27
2018-12-13T13:07:27.393Z,20.37
2018-12-13T13:09:56.181Z,20.40
2018-12-13T13:12:24.347Z,19.13
2018-12-13T13:14:52.540Z,18.20
2018-12-13T13:17:20.667Z,20.17
2018-12-13T13:19:48.786Z,20.57
2018-12-13T13:22:17.081Z,20.97
2018-12-13T13:24:45.209Z,18.47
2018-12-13T13:27:13.356Z,19.80
2018-12-13T13:29:41.573Z,19.70
2018-12-13T13:32:10.443Z,18.97
2018-12-13T13:34:38.721Z,18.20
2018-12-13T13:37:07.456Z,18.87
2018-12-13T13:39:35.694Z,17.67
2018-12-13T13:42:07.040Z,17.83
2018-12-13T13:44:36.544Z,19.70
2018-12-13T13:47:06.505Z,20.00
2018-12-13T13:49:34.907Z,29.37
2018-12-13T13:52:03.297Z,19.23
2018-12-13T13:54:32.512Z,19.70
2018-12-13T13:57:00.696Z,19.80
2018-12-13T13:59:28.962Z,21.80
2018-12-13T14:01:57.275Z,16.67
2018-12-13T14:04:25.625Z,18.20
2018-12-13T14:06:55.127Z,18.17
2018-12-13T14:09:23.485Z,17.37
2018-12-13T14:11:51.629Z,17.70
2018-12-13T14:14:19.723Z,18.77
2018-12-13T14:16:47.893Z,15.63
2018-12-13T14:19:16.109Z,17.97
2018-12-13T14:21:44.321Z,17.07
2018-12-13T14:24:12.528Z,17.47
2018-12-13T14:26:41.121Z,16.40
2018-12-13T14:29:15.897Z,18.80
2018-12-13T14:31:44.071Z,17.20
2018-12-13T14:34:12.226Z,17.50
2018-12-13T14:36:40.370Z,18.83
2018-12-13T14:39:08.476Z,18.30
2018-12-13T14:41:36.708Z,16.87
2018-12-13T14:44:04.961Z,17.60
2018-12-13T14:46:33.109Z,18.43
2018-12-13T14:49:01.299Z,16.27
2018-12-13T14:51:29.527Z,17.37
2018-12-13T14:53:57.646Z,15.50
2018-12-13T14:56:25.884Z,16.33
2018-12-13T14:58:54.066Z,18.03
2018-12-13T15:01:22.212Z,17.93
2018-12-13T15:03:50.569Z,16.57
2018-12-13T15:06:18.861Z,16.87
2018-12-13T15:08:47.007Z,16.73
2018-12-13T15:11:15.102Z,16.80
2018-12-13T15:13:43.320Z,18.07
2018-12-13T15:16:11.539Z,17.90
2018-12-13T15:18:39.654Z,18.07
2018-12-13T15:21:07.936Z,18.03
2018-12-13T15:23:36.221Z,18.27
2018-12-13T15:26:04.461Z,18.73
2018-12-13T15:28:32.655Z,16.70
2018-12-13T15:31:01.028Z,17.00
2018-12-13T15:33:29.127Z,17.60
2018-12-13T15:35:57.260Z,17.93
2018-12-13T15:38:25.565Z,17.37
2018-12-13T15:40:53.869Z,18.43
2018-12-13T15:43:22.314Z,18.17
2018-12-13T15:45:50.537Z,18.10
2018-12-13T15:48:18.754Z,18.30
2018-12-13T15:50:46.963Z,17.07
2018-12-13T15:53:15.112Z,16.90
2018-12-13T15:55:43.330Z,21.17
2018-12-13T15:58:11.553Z,22.00
2018-12-13T16:00:39.676Z,20.30
2018-12-13T16:03:07.881Z,25.90
2018-12-13T16:05:36.080Z,21.63
2018-12-13T16:08:04.272Z,19.10
2018-12-13T16:10:32.523Z,20.00
2018-12-13T16:13:00.732Z,21.70
2018-12-13T16:15:29.033Z,22.80
2018-12-13T16:17:57.166Z,19.77
2018-12-13T16:20:25.430Z,20.13
2018-12-13T16:22:53.656Z,21.03
2018-12-13T16:25:21.853Z,17.80
2018-12-13T16:27:49.988Z,20.80
2018-12-13T16:30:18.665Z,18.50
2018-12-13T16:32:46.793Z,18.83
2018-12-13T16:35:15.006Z,18.30
2018-12-13T16:37:43.165Z,18.90
2018-12-13T16:40:11.331Z,18.30
2018-12-13T16:42:39.446Z,18.13
2018-12-13T16:45:07.682Z,18.40
2018-12-13T16:47:35.803Z,19.70
2018-12-13T16:50:04.167Z,18.93
2018-12-13T16:52:32.466Z,17.17
2018-12-13T16:55:00.730Z,17.70
2018-12-13T16:57:28.907Z,17.30
2018-12-13T16:59:57.113Z,19.43
2018-12-13T17:02:25.318Z,18.70
2018-12-13T17:04:53.422Z,20.03
2018-12-13T17:07:21.611Z,19.40
2018-12-13T17:09:49.717Z,17.50
2018-12-13T17:12:17.962Z,19.10
2018-12-13T17:14:46.263Z,19.30
2018-12-13T17:17:14.634Z,19.93
2018-12-13T17:19:42.815Z,18.50
2018-12-13T17:22:11.020Z,20.30
2018-12-13T17:24:39.272Z,21.17
2018-12-13T17:27:07.386Z,19.17
2018-12-13T17:29:35.559Z,20.00
2018-12-13T17:32:03.751Z,20.73
2018-12-13T17:34:31.869Z,19.50
2018-12-13T17:37:00.005Z,19.07
2018-12-13T17:39:28.679Z,20.10
2018-12-13T17:41:57.010Z,21.40
2018-12-13T17:44:25.157Z,21.73
2018-12-13T17:46:53.580Z,20.50
2018-12-13T17:49:21.685Z,20.90
2018-12-13T17:51:49.943Z,21.70
2018-12-13T17:54:18.060Z,20.17
2018-12-13T17:56:46.194Z,22.47
2018-12-13T17:59:14.312Z,21.97
2018-12-13T18:01:42.445Z,23.20
2018-12-13T18:04:10.638Z,22.70
2018-12-13T18:06:38.865Z,21.90
2018-12-13T18:09:08.010Z,22.43
2018-12-13T18:11:36.326Z,22.70
2018-12-13T18:14:04.556Z,20.60
2018-12-13T18:16:32.736Z,22.47
2018-12-13T18:19:01.312Z,20.20
2018-12-13T18:21:29.766Z,21.63
2018-12-13T18:23:58.125Z,21.73
2018-12-13T18:26:26.371Z,20.23
2018-12-13T18:28:54.650Z,21.27
2018-12-13T18:31:22.768Z,20.07
2018-12-13T18:33:50.895Z,23.03
2018-12-13T18:36:19.018Z,23.37
2018-12-13T18:38:47.197Z,19.90
2018-12-13T18:41:15.472Z,22.20
2018-12-13T18:43:43.669Z,21.87
2018-12-13T18:46:11.953Z,20.40
2018-12-13T18:48:40.149Z,22.03
2018-12-13T18:51:08.396Z,22.00
2018-12-13T18:53:36.505Z,21.80
2018-12-13T18:56:04.757Z,24.17
2018-12-13T18:58:32.934Z,23.60
2018-12-13T19:01:01.143Z,24.00
2018-12-13T19:03:29.330Z,23.53
2018-12-13T19:05:57.529Z,24.20
2018-12-13T19:08:26.155Z,23.40
2018-12-13T19:10:54.589Z,22.47
2018-12-13T19:13:22.849Z,25.37
2018-12-13T19:15:50.976Z,23.20
2018-12-13T19:18:19.102Z,22.97
2018-12-13T19:20:47.273Z,24.00
2018-12-13T19:23:15.398Z,23.97
2018-12-13T19:25:43.594Z,23.00
2018-12-13T19:28:11.785Z,22.17
2018-12-13T19:30:39.902Z,22.70
2018-12-13T19:33:08.117Z,21.70
2018-12-13T19:35:36.296Z,22.17
2018-12-13T19:38:04.598Z,20.70
2018-12-13T19:40:32.804Z,20.33
2018-12-13T19:43:01.021Z,22.33
2018-12-13T19:45:29.156Z,22.20
2018-12-13T19:47:57.277Z,21.30
2018-12-13T19:50:25.556Z,21.53
2018-12-13T19:52:53.680Z,20.77
2018-12-13T19:55:21.991Z,20.50
2018-12-13T19:57:50.130Z,22.03
2018-12-13T20:00:18.301Z,21.07
2018-12-13T20:02:46.445Z,21.70
2018-12-13T20:05:14.626Z,22.60
2018-12-13T20:07:42.768Z,21.97
2018-12-13T20:10:10.913Z,21.93
2018-12-13T20:12:39.039Z,22.20
2018-12-13T20:15:07.508Z,20.57
2018-12-13T20:17:35.694Z,20.73
2018-12-13T20:20:04.424Z,21.23
2018-12-13T20:22:32.540Z,20.67
2018-12-13T20:25:00.758Z,21.70
2018-12-13T20:27:28.881Z,23.40
2018-12-13T20:29:57.086Z,21.70
2018-12-13T20:32:25.373Z,23.17
2018-12-13T20:34:53.598Z,23.70
2018-12-13T20:37:21.727Z,22.60
2018-12-13T20:39:49.927Z,22.30
2018-12-13T20:42:18.218Z,21.90
2018-12-13T20:44:46.506Z,22.37
2018-12-13T20:47:14.719Z,24.23
2018-12-13T20:49:42.870Z,25.87
2018-12-13T20:55:04.730Z,30.77
2018-12-13T20:57:32.860Z,42.33
2018-12-13T21:00:01.004Z,19.60
2018-12-13T21:02:29.109Z,24.50
2018-12-13T21:04:57.222Z,21.83
2018-12-13T21:07:30.795Z,22.70
2018-12-13T21:09:59.048Z,23.10
2018-12-13T21:12:27.229Z,25.87
2018-12-13T21:14:55.411Z,23.70
2018-12-13T21:17:23.584Z,26.87
2018-12-13T21:19:51.768Z,21.13
2018-12-13T21:22:19.999Z,21.60
2018-12-13T21:24:48.305Z,20.97
2018-12-13T21:27:16.441Z,21.70
2018-12-13T21:29:44.714Z,20.53
2018-12-13T21:32:12.820Z,19.83
2018-12-13T21:34:40.962Z,20.50
2018-12-13T21:37:09.124Z,19.53
2018-12-13T21:39:37.224Z,20.27
2018-12-13T21:42:05.410Z,20.90
2018-12-13T21:44:33.662Z,20.93
2018-12-13T21:47:01.779Z,19.90
2018-12-13T21:49:30.022Z,21.43
2018-12-13T21:51:58.286Z,21.60
2018-12-13T21:54:26.477Z,21.53
2018-12-13T21:56:54.873Z,20.40
2018-12-13T21:59:23.086Z,20.67
2018-12-13T22:01:52.110Z,19.50
2018-12-13T22:04:20.207Z,20.97
2018-12-13T22:06:48.434Z,19.83
2018-12-13T22:09:16.544Z,22.10
2018-12-13T22:11:44.684Z,18.80
2018-12-13T22:14:12.865Z,20.07
2018-12-13T22:16:41.005Z,20.30
2018-12-13T22:19:09.291Z,22.00
2018-12-13T22:21:37.540Z,20.60
2018-12-13T22:24:05.761Z,23.10
2018-12-13T22:26:34.505Z,21.13
2018-12-13T22:29:05.019Z,23.53
2018-12-13T22:31:33.241Z,23.47
2018-12-13T22:34:01.380Z,21.67
2018-12-13T22:36:29.556Z,21.93
2018-12-13T22:38:57.707Z,24.03
2018-12-13T22:41:26.511Z,22.40
2018-12-13T22:43:54.887Z,22.90
2018-12-13T22:46:23.020Z,24.70
2018-12-13T22:48:51.341Z,21.90
2018-12-13T22:51:19.661Z,23.07
2018-12-13T22:53:47.999Z,21.43
2018-12-13T22:56:16.230Z,23.40
2018-12-13T22:58:44.516Z,23.40
2018-12-13T23:01:13.017Z,22.83
2018-12-13T23:03:41.184Z,23.20
2018-12-13T23:06:09.454Z,23.30
2018-12-13T23:08:37.644Z,20.40
2018-12-13T23:11:05.941Z,23.43
2018-12-13T23:13:34.112Z,23.67
2018-12-13T23:16:02.293Z,21.33
2018-12-13T23:18:30.407Z,22.83
2018-12-13T23:20:58.512Z,23.07
2018-12-13T23:23:26.630Z,25.10
2018-12-13T23:25:54.829Z,21.57
2018-12-13T23:28:23.038Z,23.03
2018-12-13T23:30:51.225Z,23.90
2018-12-13T23:33:19.404Z,24.17
2018-12-13T23:35:47.599Z,22.43
2018-12-13T23:38:15.782Z,22.60
2018-12-13T23:40:43.908Z,21.63
2018-12-13T23:43:12.372Z,22.03
2018-12-13T23:45:40.612Z,20.43
2018-12-13T23:48:08.805Z,23.67
2018-12-13T23:50:36.981Z,22.33
2018-12-13T23:53:05.183Z,22.10
2018-12-13T23:55:33.391Z,21.23
2018-12-13T23:58:01.569Z,20.70
